createdAt,value
2023-03-22T00:04:29.170Z,24.50
2023-03-22T00:09:34.717Z,22.30
2023-03-22T00:14:41.460Z,22.23
2023-03-22T00:19:47.482Z,21.20
2023-03-22T00:24:52.890Z,22.60
2023-03-22T00:29:58.375Z,22.73
2023-03-22T00:35:05.391Z,22.30
2023-03-22T00:40:13.596Z,22.33
2023-03-22T00:45:19.372Z,21.37
2023-03-22T00:50:24.925Z,23.37
2023-03-22T00:55:30.707Z,24.90
2023-03-22T01:00:36.502Z,24.77
2023-03-22T01:05:42.091Z,27.40
2023-03-22T01:10:47.740Z,27.20
2023-03-22T01:15:53.541Z,26.13
2023-03-22T01:21:01.175Z,25.93
2023-03-22T01:26:08.508Z,24.63
2023-03-22T01:31:14.626Z,24.90
2023-03-22T01:36:21.423Z,26.27
2023-03-22T01:41:27.155Z,26.87
2023-03-22T01:46:33.876Z,24.13
2023-03-22T01:51:43.873Z,23.77
2023-03-22T01:57:07.927Z,22.50
2023-03-22T02:02:17.954Z,22.93
2023-03-22T02:07:28.613Z,25.67
2023-03-22T02:12:55.746Z,24.70
2023-03-22T02:18:26.623Z,25.43
2023-03-22T02:23:53.891Z,28.70
2023-03-22T02:29:07.520Z,26.23
2023-03-22T02:34:24.895Z,27.20
2023-03-22T02:39:36.393Z,27.20
2023-03-22T02:44:51.587Z,24.17
2023-03-22T02:50:02.734Z,27.70
2023-03-22T02:55:34.301Z,25.57
2023-03-22T03:00:44.245Z,24.93
2023-03-22T03:05:52.708Z,27.23
2023-03-22T03:10:58.736Z,23.60
2023-03-22T03:16:08.087Z,26.13
2023-03-22T03:21:48.699Z,26.37
2023-03-22T03:27:12.413Z,25.93
2023-03-22T03:32:26.957Z,25.27
2023-03-22T03:37:39.347Z,28.73
2023-03-22T03:42:47.800Z,25.83
2023-03-22T03:47:57.355Z,27.47
2023-03-22T03:53:03.549Z,28.13
2023-03-22T03:58:12.383Z,25.57
2023-03-22T04:03:19.666Z,25.83
2023-03-22T04:08:27.757Z,26.87
2023-03-22T04:13:33.534Z,28.73
2023-03-22T04:18:40.828Z,29.57
2023-03-22T04:23:46.981Z,30.83
2023-03-22T04:28:53.828Z,27.97
2023-03-22T04:34:00.490Z,27.97
2023-03-22T04:39:12.680Z,27.13
2023-03-22T04:44:19.137Z,27.70
2023-03-22T04:49:27.202Z,27.67
2023-03-22T04:54:32.757Z,24.97
2023-03-22T04:59:39.220Z,24.93
2023-03-22T05:04:45.442Z,27.33
2023-03-22T05:09:52.795Z,26.07
2023-03-22T05:14:58.579Z,25.53
2023-03-22T05:20:10.432Z,25.67
2023-03-22T05:25:17.856Z,27.00
2023-03-22T05:30:24.435Z,27.27
2023-03-22T05:35:33.783Z,27.90
2023-03-22T05:40:40.580Z,26.37
2023-03-22T05:45:47.626Z,28.57
2023-03-22T05:50:54.727Z,27.23
2023-03-22T05:56:00.908Z,26.00
2023-03-22T06:01:11.653Z,27.43
2023-03-22T06:06:28.358Z,29.53
2023-03-22T06:11:38.265Z,28.00
2023-03-22T06:16:44.959Z,26.60
2023-03-22T06:21:51.979Z,26.10
2023-03-22T06:26:59.136Z,26.37
2023-03-22T06:32:06.922Z,27.53
2023-03-22T06:37:12.774Z,26.63
2023-03-22T06:42:20.008Z,26.03
2023-03-22T06:47:27.553Z,25.97
2023-03-22T06:52:41.155Z,26.60
2023-03-22T06:57:46.984Z,25.30
2023-03-22T07:02:52.903Z,25.63
2023-03-22T07:08:00.301Z,23.93
2023-03-22T07:13:06.649Z,21.90
2023-03-22T07:18:13.654Z,21.80
2023-03-22T07:23:20.405Z,22.67
2023-03-22T07:28:28.221Z,21.37
2023-03-22T07:33:34.947Z,20.63
2023-03-22T07:38:40.699Z,21.73
2023-03-22T07:43:55.421Z,19.20
2023-03-22T07:48:56.332Z,18.20
2023-03-22T07:54:06.401Z,15.50
2023-03-22T07:59:11.889Z,15.70
2023-03-22T08:04:19.601Z,15.57
2023-03-22T08:09:33.408Z,14.83
2023-03-22T08:14:39.322Z,15.17
2023-03-22T08:19:47.148Z,14.47
2023-03-22T08:24:54.249Z,13.60
2023-03-22T08:30:02.494Z,13.60
2023-03-22T08:35:10.067Z,14.30
2023-03-22T08:40:16.112Z,12.83
2023-03-22T08:45:23.416Z,11.93
2023-03-22T08:50:30.781Z,13.70
2023-03-22T08:55:40.167Z,11.87
2023-03-22T09:00:53.633Z,12.30
2023-03-22T09:06:11.741Z,11.17
2023-03-22T09:11:20.342Z,12.37
2023-03-22T09:16:26.187Z,11.33
2023-03-22T09:21:32.114Z,11.70
2023-03-22T09:26:39.508Z,10.67
2023-03-22T09:31:46.856Z,9.77
2023-03-22T09:36:54.617Z,10.17
2023-03-22T09:42:06.349Z,11.67
2023-03-22T09:47:18.292Z,10.47
2023-03-22T09:52:23.869Z,11.90
2023-03-22T09:57:34.478Z,10.40
2023-03-22T10:02:45.904Z,11.13
2023-03-22T10:07:57.347Z,10.90
2023-03-22T10:13:15.476Z,11.03
2023-03-22T10:18:24.054Z,10.13
2023-03-22T10:23:35.491Z,8.73
2023-03-22T10:28:44.196Z,10.70
2023-03-22T10:33:58.563Z,9.03
2023-03-22T10:39:07.109Z,10.63
2023-03-22T10:44:15.745Z,11.80
2023-03-22T10:49:26.736Z,10.10
2023-03-22T10:54:32.793Z,12.77
2023-03-22T10:59:52.167Z,8.60
2023-03-22T11:05:00.692Z,9.37
2023-03-22T11:10:12.188Z,8.67
2023-03-22T11:15:35.769Z,9.87
2023-03-22T11:20:44.468Z,10.07
2023-03-22T11:25:52.827Z,8.77
2023-03-22T11:31:11.149Z,10.60
2023-03-22T11:36:19.201Z,9.33
2023-03-22T11:41:28.048Z,8.33
2023-03-22T11:46:36.232Z,8.40
2023-03-22T11:51:43.350Z,9.30
2023-03-22T11:56:50.650Z,9.77
2023-03-22T12:02:17.380Z,10.77
2023-03-22T12:07:24.789Z,11.50
2023-03-22T12:12:36.260Z,10.00
2023-03-22T12:18:10.936Z,10.37
2023-03-22T12:23:19.159Z,10.17
2023-03-22T12:28:27.697Z,9.93
2023-03-22T12:33:36.213Z,10.37
2023-03-22T12:38:44.670Z,10.87
2023-03-22T12:43:56.128Z,10.47
2023-03-22T12:49:40.657Z,10.30
2023-03-22T12:54:49.682Z,10.10
2023-03-22T12:59:58.558Z,10.53
2023-03-22T13:05:08.988Z,8.23
2023-03-22T13:10:37.089Z,9.00
2023-03-22T13:16:00.902Z,9.03
2023-03-22T13:21:21.301Z,8.53
2023-03-22T13:26:51.680Z,8.70
2023-03-22T13:32:00.399Z,9.43
2023-03-22T13:37:25.383Z,8.13
2023-03-22T13:42:39.976Z,8.33
2023-03-22T13:47:47.892Z,8.07
2023-03-22T13:53:05.869Z,8.40
2023-03-22T13:58:14.043Z,9.43
2023-03-22T14:03:25.709Z,7.93
2023-03-22T14:08:34.053Z,7.80
2023-03-22T14:13:45.381Z,6.87
2023-03-22T14:18:52.066Z,7.63
